Terminal Aerodrome Forecast
Issued by NWS

Current Version | Previous Version | Text Only | Print | Product List | Glossary Off
Versions: 1 2 3 4 5 6 7 8 9 10 11 12 13 14 15 16 17 18 19 20 21 22

174
FTUS41 KILN 181133
TAFLCK
TAF
KLCK 181133Z 1812/1912 00000KT 3SM BR SCT050 BKN250
     FM181400 20004KT P6SM SCT050 BKN250
     FM190000 00000KT P6SM BKN130
     FM190900 17003KT P6SM VCSH SCT040 BKN090=

USA.gov is the U.S. government's official web portal to all federal, state and local government web resources and services.